sensor_id;sensor_type;location;lat;lon;timestamp;pressure;altitude;pressure_sealevel;temperature;humidity
10978;BME280;5542;48.272;10.794;2023-08-01T00:01:00;94931.56;;;18.55;78.78
10978;BME280;5542;48.272;10.794;2023-08-01T00:03:27;94928.72;;;18.52;78.58
10978;BME280;5542;48.272;10.794;2023-08-01T00:05:53;94922.09;;;18.49;78.35
10978;BME280;5542;48.272;10.794;2023-08-01T00:08:20;94920.53;;;18.48;78.65
10978;BME280;5542;48.272;10.794;2023-08-01T00:10:48;94907.69;;;18.50;78.28
10978;BME280;5542;48.272;10.794;2023-08-01T00:13:15;94900.81;;;18.49;77.91
10978;BME280;5542;48.272;10.794;2023-08-01T00:15:42;94901.59;;;18.50;77.14
10978;BME280;5542;48.272;10.794;2023-08-01T00:18:08;94907.50;;;18.47;76.42
10978;BME280;5542;48.272;10.794;2023-08-01T00:20:35;94902.69;;;18.49;75.47
10978;BME280;5542;48.272;10.794;2023-08-01T00:23:01;94897.94;;;18.46;75.03
10978;BME280;5542;48.272;10.794;2023-08-01T00:25:28;94896.66;;;18.57;73.44
10978;BME280;5542;48.272;10.794;2023-08-01T00:27:56;94889.78;;;18.42;73.73
10978;BME280;5542;48.272;10.794;2023-08-01T00:30:23;94880.91;;;18.33;73.79
10978;BME280;5542;48.272;10.794;2023-08-01T00:32:49;94878.72;;;18.35;73.75
10978;BME280;5542;48.272;10.794;2023-08-01T00:35:16;94878.25;;;18.33;73.96
10978;BME280;5542;48.272;10.794;2023-08-01T00:37:42;94871.84;;;18.34;74.24
10978;BME280;5542;48.272;10.794;2023-08-01T00:40:09;94862.38;;;18.28;74.31
10978;BME280;5542;48.272;10.794;2023-08-01T00:42:36;94862.47;;;18.23;73.92
10978;BME280;5542;48.272;10.794;2023-08-01T00:45:06;94849.25;;;18.17;73.84
10978;BME280;5542;48.272;10.794;2023-08-01T00:47:32;94840.69;;;18.21;73.54
10978;BME280;5542;48.272;10.794;2023-08-01T00:49:59;94832.81;;;18.15;74.07
10978;BME280;5542;48.272;10.794;2023-08-01T00:52:27;94834.91;;;18.19;74.36
10978;BME280;5542;48.272;10.794;2023-08-01T00:54:54;94835.38;;;18.07;74.58
10978;BME280;5542;48.272;10.794;2023-08-01T00:57:21;94841.88;;;18.14;74.88
10978;BME280;5542;48.272;10.794;2023-08-01T00:59:48;94850.25;;;18.22;73.90
10978;BME280;5542;48.272;10.794;2023-08-01T01:02:16;94843.16;;;18.17;73.99
10978;BME280;5542;48.272;10.794;2023-08-01T01:04:42;94842.06;;;18.18;72.57
10978;BME280;5542;48.272;10.794;2023-08-01T01:07:09;94832.50;;;18.17;71.73
10978;BME280;5542;48.272;10.794;2023-08-01T01:09:36;94834.69;;;18.29;70.83
10978;BME280;5542;48.272;10.794;2023-08-01T01:12:02;94836.66;;;18.09;71.57
10978;BME280;5542;48.272;10.794;2023-08-01T01:14:30;94843.56;;;18.10;71.82
10978;BME280;5542;48.272;10.794;2023-08-01T01:16:56;94834.28;;;18.08;72.33
10978;BME280;5542;48.272;10.794;2023-08-01T01:19:24;94834.38;;;18.16;72.17
10978;BME280;5542;48.272;10.794;2023-08-01T01:21:52;94828.88;;;18.13;72.32
10978;BME280;5542;48.272;10.794;2023-08-01T01:24:19;94810.53;;;18.11;72.45
10978;BME280;5542;48.272;10.794;2023-08-01T01:26:48;94811.31;;;18.12;72.47
10978;BME280;5542;48.272;10.794;2023-08-01T01:29:15;94811.03;;;18.13;72.88
10978;BME280;5542;48.272;10.794;2023-08-01T01:35:03;94790.81;;;18.12;74.31
10978;BME280;5542;48.272;10.794;2023-08-01T01:37:31;94791.59;;;18.13;74.93
10978;BME280;5542;48.272;10.794;2023-08-01T01:39:58;94794.56;;;18.11;75.31
10978;BME280;5542;48.272;10.794;2023-08-01T01:42:24;94785.81;;;18.11;75.70
10978;BME280;5542;48.272;10.794;2023-08-01T01:44:51;94783.94;;;18.11;76.35
10978;BME280;5542;48.272;10.794;2023-08-01T01:47:18;94780.19;;;18.12;76.88
10978;BME280;5542;48.272;10.794;2023-08-01T01:49:44;94768.56;;;18.08;76.98
10978;BME280;5542;48.272;10.794;2023-08-01T01:52:11;94767.59;;;18.04;77.10
10978;BME280;5542;48.272;10.794;2023-08-01T01:54:39;94755.38;;;18.03;77.18
10978;BME280;5542;48.272;10.794;2023-08-01T01:57:05;94758.03;;;18.03;77.18
10978;BME280;5542;48.272;10.794;2023-08-01T01:59:32;94754.31;;;18.04;77.33
10978;BME280;5542;48.272;10.794;2023-08-01T02:01:58;94751.53;;;18.09;77.02
10978;BME280;5542;48.272;10.794;2023-08-01T02:04:25;94746.22;;;18.09;77.28
10978;BME280;5542;48.272;10.794;2023-08-01T02:06:52;94748.38;;;18.07;77.30
10978;BME280;5542;48.272;10.794;2023-08-01T02:09:20;94744.72;;;18.03;77.17
10978;BME280;5542;48.272;10.794;2023-08-01T02:11:47;94744.72;;;18.03;76.61
10978;BME280;5542;48.272;10.794;2023-08-01T02:14:14;94751.72;;;17.99;76.33
10978;BME280;5542;48.272;10.794;2023-08-01T02:16:41;94744.81;;;17.98;76.36
10978;BME280;5542;48.272;10.794;2023-08-01T02:19:07;94745.91;;;17.97;76.55
10978;BME280;5542;48.272;10.794;2023-08-01T02:21:34;94743.38;;;17.92;76.62
10978;BME280;5542;48.272;10.794;2023-08-01T02:24:00;94743.38;;;17.92;76.78
10978;BME280;5542;48.272;10.794;2023-08-01T02:26:28;94750.47;;;17.97;76.28
10978;BME280;5542;48.272;10.794;2023-08-01T02:28:56;94756.66;;;17.92;76.48
10978;BME280;5542;48.272;10.794;2023-08-01T02:31:22;94768.41;;;17.91;76.97
10978;BME280;5542;48.272;10.794;2023-08-01T02:33:49;94763.44;;;17.98;75.96
10978;BME280;5542;48.272;10.794;2023-08-01T02:36:15;94764.09;;;18.17;75.46
10978;BME280;5542;48.272;10.794;2023-08-01T02:38:42;94761.97;;;18.06;77.06
10978;BME280;5542;48.272;10.794;2023-08-01T02:41:09;94760.41;;;18.05;77.43
10978;BME280;5542;48.272;10.794;2023-08-01T02:43:35;94756.09;;;17.95;78.19
10978;BME280;5542;48.272;10.794;2023-08-01T02:46:03;94756.56;;;17.97;79.21
10978;BME280;5542;48.272;10.794;2023-08-01T02:48:30;94759.81;;;17.94;79.64
10978;BME280;5542;48.272;10.794;2023-08-01T02:50:57;94752.22;;;18.01;79.88
10978;BME280;5542;48.272;10.794;2023-08-01T02:53:24;94759.34;;;17.92;80.63
10978;BME280;5542;48.272;10.794;2023-08-01T02:55:50;94754.59;;;17.89;81.16
10978;BME280;5542;48.272;10.794;2023-08-01T02:58:17;94757.97;;;17.95;81.29
10978;BME280;5542;48.272;10.794;2023-08-01T03:00:44;94751.81;;;17.94;81.30
10978;BME280;5542;48.272;10.794;2023-08-01T03:03:14;94750.88;;;17.90;81.71
10978;BME280;5542;48.272;10.794;2023-08-01T03:05:40;94749.59;;;17.87;82.08
10978;BME280;5542;48.272;10.794;2023-08-01T03:08:07;94757.97;;;17.81;82.53
10978;BME280;5542;48.272;10.794;2023-08-01T03:10:34;94751.34;;;17.78;82.90
10978;BME280;5542;48.272;10.794;2023-08-01T03:13:00;94757.47;;;17.79;83.26
10978;BME280;5542;48.272;10.794;2023-08-01T03:15:27;94751.88;;;17.80;83.37
10978;BME280;5542;48.272;10.794;2023-08-01T03:17:54;94755.59;;;17.79;83.78
10978;BME280;5542;48.272;10.794;2023-08-01T03:20:22;94752.94;;;17.79;83.71
10978;BME280;5542;48.272;10.794;2023-08-01T03:22:48;94745.72;;;17.94;83.17
10978;BME280;5542;48.272;10.794;2023-08-01T03:25:15;94760.75;;;17.76;82.84
10978;BME280;5542;48.272;10.794;2023-08-01T03:27:42;94753.72;;;17.66;83.66
10978;BME280;5542;48.272;10.794;2023-08-01T03:30:09;94766.84;;;17.76;83.88
10978;BME280;5542;48.272;10.794;2023-08-01T03:32:36;94767.00;;;17.80;83.21
10978;BME280;5542;48.272;10.794;2023-08-01T03:35:03;94762.97;;;17.69;84.24
10978;BME280;5542;48.272;10.794;2023-08-01T03:37:31;94763.06;;;17.63;84.46
10978;BME280;5542;48.272;10.794;2023-08-01T03:39:58;94753.09;;;17.55;85.38
10978;BME280;5542;48.272;10.794;2023-08-01T03:42:25;94753.41;;;17.54;86.15
10978;BME280;5542;48.272;10.794;2023-08-01T03:44:51;94752.84;;;17.57;86.44
10978;BME280;5542;48.272;10.794;2023-08-01T03:47:18;94754.28;;;17.49;86.67
10978;BME280;5542;48.272;10.794;2023-08-01T03:49:44;94742.88;;;17.49;86.92
10978;BME280;5542;48.272;10.794;2023-08-01T03:52:11;94755.06;;;17.36;87.60
10978;BME280;5542;48.272;10.794;2023-08-01T03:54:39;94750.25;;;17.52;87.27
10978;BME280;5542;48.272;10.794;2023-08-01T03:57:05;94740.31;;;17.44;86.65
10978;BME280;5542;48.272;10.794;2023-08-01T03:59:32;94736.00;;;17.48;86.83
10978;BME280;5542;48.272;10.794;2023-08-01T04:01:58;94734.78;;;17.40;87.57
10978;BME280;5542;48.272;10.794;2023-08-01T04:04:24;94732.34;;;17.44;87.68
10978;BME280;5542;48.272;10.794;2023-08-01T04:06:51;94725.34;;;17.34;88.21
10978;BME280;5542;48.272;10.794;2023-08-01T04:09:17;94725.72;;;17.27;88.03
10978;BME280;5542;48.272;10.794;2023-08-01T04:11:45;94730.56;;;17.25;88.84
10978;BME280;5542;48.272;10.794;2023-08-01T04:14:12;94719.06;;;17.30;88.54
10978;BME280;5542;48.272;10.794;2023-08-01T04:16:39;94722.28;;;17.27;89.05
10978;BME280;5542;48.272;10.794;2023-08-01T04:19:05;94712.25;;;17.24;89.79
10978;BME280;5542;48.272;10.794;2023-08-01T04:21:32;94708.97;;;17.13;89.99
10978;BME280;5542;48.272;10.794;2023-08-01T04:23:58;94710.50;;;17.19;90.16
10978;BME280;5542;48.272;10.794;2023-08-01T04:26:25;94708.00;;;17.23;89.92
10978;BME280;5542;48.272;10.794;2023-08-01T04:28:53;94704.38;;;17.19;90.81
10978;BME280;5542;48.272;10.794;2023-08-01T04:31:19;94693.75;;;17.19;91.48
10978;BME280;5542;48.272;10.794;2023-08-01T04:33:46;94685.19;;;17.22;91.61
10978;BME280;5542;48.272;10.794;2023-08-01T04:36:13;94686.28;;;17.21;91.89
10978;BME280;5542;48.272;10.794;2023-08-01T04:38:39;94672.50;;;17.19;91.71
10978;BME280;5542;48.272;10.794;2023-08-01T04:41:06;94667.19;;;17.19;91.02
10978;BME280;5542;48.272;10.794;2023-08-01T04:43:33;94671.59;;;17.23;91.21
10978;BME280;5542;48.272;10.794;2023-08-01T04:46:01;94673.97;;;17.25;90.77
10978;BME280;5542;48.272;10.794;2023-08-01T04:48:27;94679.78;;;17.27;89.89
10978;BME280;5542;48.272;10.794;2023-08-01T04:50:54;94681.06;;;17.29;90.20
10978;BME280;5542;48.272;10.794;2023-08-01T04:53:20;94676.44;;;17.21;90.42
10978;BME280;5542;48.272;10.794;2023-08-01T04:55:47;94675.66;;;17.34;88.86
10978;BME280;5542;48.272;10.794;2023-08-01T04:58:14;94675.94;;;17.33;88.42
10978;BME280;5542;48.272;10.794;2023-08-01T05:00:42;94674.06;;;17.33;88.91
10978;BME280;5542;48.272;10.794;2023-08-01T05:03:10;94689.63;;;17.26;89.00
10978;BME280;5542;48.272;10.794;2023-08-01T05:05:36;94700.03;;;17.23;89.20
10978;BME280;5542;48.272;10.794;2023-08-01T05:08:03;94701.34;;;17.39;88.36
10978;BME280;5542;48.272;10.794;2023-08-01T05:10:30;94690.97;;;17.37;87.86
10978;BME280;5542;48.272;10.794;2023-08-01T05:12:56;94692.38;;;17.35;87.90
10978;BME280;5542;48.272;10.794;2023-08-01T05:15:23;94686.19;;;17.39;88.06
10978;BME280;5542;48.272;10.794;2023-08-01T05:17:50;94701.53;;;17.29;88.95
10978;BME280;5542;48.272;10.794;2023-08-01T05:20:17;94701.03;;;17.40;88.04
10978;BME280;5542;48.272;10.794;2023-08-01T05:22:44;94702.22;;;17.48;87.18
10978;BME280;5542;48.272;10.794;2023-08-01T05:25:10;94706.03;;;17.42;87.38
10978;BME280;5542;48.272;10.794;2023-08-01T05:27:37;94700.94;;;17.46;87.33
10978;BME280;5542;48.272;10.794;2023-08-01T05:30:04;94696.28;;;17.51;87.63
10978;BME280;5542;48.272;10.794;2023-08-01T05:32:31;94701.22;;;17.44;88.67
10978;BME280;5542;48.272;10.794;2023-08-01T05:34:58;94690.59;;;17.44;89.14
10978;BME280;5542;48.272;10.794;2023-08-01T05:37:25;94686.66;;;17.55;88.14
10978;BME280;5542;48.272;10.794;2023-08-01T05:39:52;94684.59;;;17.52;88.50
10978;BME280;5542;48.272;10.794;2023-08-01T05:42:18;94680.66;;;17.50;88.01
10978;BME280;5542;48.272;10.794;2023-08-01T05:44:45;94668.94;;;17.51;87.09
10978;BME280;5542;48.272;10.794;2023-08-01T05:47:12;94666.78;;;17.53;88.09
10978;BME280;5542;48.272;10.794;2023-08-01T05:49:38;94677.31;;;17.58;86.71
10978;BME280;5542;48.272;10.794;2023-08-01T05:52:07;94655.34;;;17.52;87.91
10978;BME280;5542;48.272;10.794;2023-08-01T05:54:35;94642.19;;;17.47;87.75
10978;BME280;5542;48.272;10.794;2023-08-01T05:57:01;94634.91;;;17.39;88.03
10978;BME280;5542;48.272;10.794;2023-08-01T05:59:28;94627.91;;;17.43;88.36
10978;BME280;5542;48.272;10.794;2023-08-01T06:01:55;94614.09;;;17.41;88.35
10978;BME280;5542;48.272;10.794;2023-08-01T06:04:21;94599.25;;;17.40;87.89
10978;BME280;5542;48.272;10.794;2023-08-01T06:06:48;94578.00;;;17.40;87.88
10978;BME280;5542;48.272;10.794;2023-08-01T06:09:14;94552.50;;;17.39;87.29
10978;BME280;5542;48.272;10.794;2023-08-01T06:11:42;94531.72;;;17.41;86.99
10978;BME280;5542;48.272;10.794;2023-08-01T06:14:09;94530.59;;;17.20;86.44
10978;BME280;5542;48.272;10.794;2023-08-01T06:16:36;94551.56;;;17.21;86.78
10978;BME280;5542;48.272;10.794;2023-08-01T06:19:02;94538.25;;;17.35;86.18
10978;BME280;5542;48.272;10.794;2023-08-01T06:21:29;94537.38;;;17.26;85.82
10978;BME280;5542;48.272;10.794;2023-08-01T06:23:56;94540.78;;;17.40;84.78
10978;BME280;5542;48.272;10.794;2023-08-01T06:26:22;94560.38;;;17.44;84.16
10978;BME280;5542;48.272;10.794;2023-08-01T06:28:50;94562.34;;;17.38;83.94
10978;BME280;5542;48.272;10.794;2023-08-01T06:31:18;94565.00;;;17.38;82.99
10978;BME280;5542;48.272;10.794;2023-08-01T06:33:44;94560.94;;;17.41;82.73
10978;BME280;5542;48.272;10.794;2023-08-01T06:36:11;94559.38;;;17.40;82.79
10978;BME280;5542;48.272;10.794;2023-08-01T06:38:38;94547.38;;;17.43;82.47
10978;BME280;5542;48.272;10.794;2023-08-01T06:41:04;94537.22;;;17.45;83.30
10978;BME280;5542;48.272;10.794;2023-08-01T06:43:31;94544.91;;;17.46;81.42
10978;BME280;5542;48.272;10.794;2023-08-01T06:45:59;94557.13;;;17.47;81.04
10978;BME280;5542;48.272;10.794;2023-08-01T06:48:26;94561.22;;;17.53;79.95
10978;BME280;5542;48.272;10.794;2023-08-01T06:50:53;94557.56;;;17.63;79.08
10978;BME280;5542;48.272;10.794;2023-08-01T06:53:20;94558.47;;;17.58;77.37
10978;BME280;5542;48.272;10.794;2023-08-01T06:55:46;94543.38;;;17.67;76.98
10978;BME280;5542;48.272;10.794;2023-08-01T06:58:13;94523.84;;;17.72;75.36
10978;BME280;5542;48.272;10.794;2023-08-01T07:00:39;94521.41;;;17.76;75.64
10978;BME280;5542;48.272;10.794;2023-08-01T07:03:07;94521.50;;;17.93;75.14
10978;BME280;5542;48.272;10.794;2023-08-01T07:05:34;94535.59;;;17.94;75.03
10978;BME280;5542;48.272;10.794;2023-08-01T07:08:00;94542.91;;;17.88;76.27
10978;BME280;5542;48.272;10.794;2023-08-01T07:10:27;94537.06;;;18.00;74.17
10978;BME280;5542;48.272;10.794;2023-08-01T07:12:53;94562.50;;;18.14;72.23
10978;BME280;5542;48.272;10.794;2023-08-01T07:15:20;94573.19;;;18.23;72.78
10978;BME280;5542;48.272;10.794;2023-08-01T07:17:47;94572.09;;;18.24;73.74
10978;BME280;5542;48.272;10.794;2023-08-01T07:20:15;94573.53;;;18.30;73.21
10978;BME280;5542;48.272;10.794;2023-08-01T07:22:42;94583.66;;;18.51;71.61
10978;BME280;5542;48.272;10.794;2023-08-01T07:25:09;94601.75;;;18.62;70.31
10978;BME280;5542;48.272;10.794;2023-08-01T07:27:36;94599.94;;;18.72;72.94
10978;BME280;5542;48.272;10.794;2023-08-01T07:30:03;94598.53;;;18.74;70.50
10978;BME280;5542;48.272;10.794;2023-08-01T07:32:30;94605.97;;;18.86;69.39
10978;BME280;5542;48.272;10.794;2023-08-01T07:34:57;94597.47;;;18.84;67.77
10978;BME280;5542;48.272;10.794;2023-08-01T07:37:25;94589.63;;;18.79;67.87
10978;BME280;5542;48.272;10.794;2023-08-01T07:39:53;94574.56;;;18.74;66.98
10978;BME280;5542;48.272;10.794;2023-08-01T07:42:20;94567.84;;;18.77;67.50
10978;BME280;5542;48.272;10.794;2023-08-01T07:44:46;94576.69;;;18.63;67.10
10978;BME280;5542;48.272;10.794;2023-08-01T07:47:13;94582.94;;;18.59;66.66
10978;BME280;5542;48.272;10.794;2023-08-01T07:49:39;94574.75;;;18.55;67.63
10978;BME280;5542;48.272;10.794;2023-08-01T07:52:06;94585.91;;;18.57;67.98
10978;BME280;5542;48.272;10.794;2023-08-01T07:54:35;94573.00;;;18.51;66.70
10978;BME280;5542;48.272;10.794;2023-08-01T07:57:02;94572.72;;;18.52;67.97
10978;BME280;5542;48.272;10.794;2023-08-01T07:59:29;94573.25;;;18.63;67.10
10978;BME280;5542;48.272;10.794;2023-08-01T08:01:55;94573.56;;;18.61;67.07
10978;BME280;5542;48.272;10.794;2023-08-01T08:04:22;94574.16;;;18.58;68.21
10978;BME280;5542;48.272;10.794;2023-08-01T08:06:48;94567.88;;;18.54;68.03
10978;BME280;5542;48.272;10.794;2023-08-01T08:09:15;94576.91;;;18.45;68.85
10978;BME280;5542;48.272;10.794;2023-08-01T08:11:43;94578.19;;;18.47;67.96
10978;BME280;5542;48.272;10.794;2023-08-01T08:14:10;94570.34;;;18.42;69.00
10978;BME280;5542;48.272;10.794;2023-08-01T08:16:39;94569.75;;;18.54;68.76
10978;BME280;5542;48.272;10.794;2023-08-01T08:19:06;94569.09;;;18.48;68.72
10978;BME280;5542;48.272;10.794;2023-08-01T08:21:33;94575.03;;;18.45;69.64
10978;BME280;5542;48.272;10.794;2023-08-01T08:23:59;94567.69;;;18.51;69.11
10978;BME280;5542;48.272;10.794;2023-08-01T08:26:26;94578.66;;;18.49;69.19
10978;BME280;5542;48.272;10.794;2023-08-01T08:28:54;94581.75;;;18.42;69.60
10978;BME280;5542;48.272;10.794;2023-08-01T08:31:21;94577.81;;;18.40;70.00
10978;BME280;5542;48.272;10.794;2023-08-01T08:33:47;94567.81;;;18.46;69.96
10978;BME280;5542;48.272;10.794;2023-08-01T08:36:14;94572.06;;;18.47;70.33
10978;BME280;5542;48.272;10.794;2023-08-01T08:38:40;94582.47;;;18.57;70.20
10978;BME280;5542;48.272;10.794;2023-08-01T08:41:09;94585.06;;;18.71;70.12
10978;BME280;5542;48.272;10.794;2023-08-01T08:43:37;94594.63;;;18.72;69.82
10978;BME280;5542;48.272;10.794;2023-08-01T08:46:05;94600.63;;;18.86;70.39
10978;BME280;5542;48.272;10.794;2023-08-01T08:48:32;94594.25;;;18.96;69.94
10978;BME280;5542;48.272;10.794;2023-08-01T08:51:00;94591.31;;;19.14;69.92
10978;BME280;5542;48.272;10.794;2023-08-01T08:53:28;94597.03;;;19.39;68.72
10978;BME280;5542;48.272;10.794;2023-08-01T08:55:56;94600.94;;;19.33;68.99
10978;BME280;5542;48.272;10.794;2023-08-01T08:58:24;94597.97;;;19.43;67.70
10978;BME280;5542;48.272;10.794;2023-08-01T09:00:51;94601.72;;;19.33;68.74
10978;BME280;5542;48.272;10.794;2023-08-01T09:03:19;94595.59;;;19.41;68.77
10978;BME280;5542;48.272;10.794;2023-08-01T09:05:49;94600.97;;;19.50;67.67
10978;BME280;5542;48.272;10.794;2023-08-01T09:08:19;94601.03;;;19.67;67.94
10978;BME280;5542;48.272;10.794;2023-08-01T09:10:46;94596.28;;;19.64;67.29
10978;BME280;5542;48.272;10.794;2023-08-01T09:13:13;94604.44;;;19.59;67.00
10978;BME280;5542;48.272;10.794;2023-08-01T09:15:41;94598.47;;;19.54;66.45
10978;BME280;5542;48.272;10.794;2023-08-01T09:18:08;94604.41;;;19.51;67.42
10978;BME280;5542;48.272;10.794;2023-08-01T09:20:44;94618.38;;;19.48;67.14
10978;BME280;5542;48.272;10.794;2023-08-01T09:23:11;94624.69;;;19.69;67.13
10978;BME280;5542;48.272;10.794;2023-08-01T09:25:39;94613.91;;;19.91;66.63
10978;BME280;5542;48.272;10.794;2023-08-01T09:28:18;94633.38;;;20.09;64.94
10978;BME280;5542;48.272;10.794;2023-08-01T09:30:46;94636.66;;;20.06;64.22
10978;BME280;5542;48.272;10.794;2023-08-01T09:33:13;94644.22;;;20.04;63.69
10978;BME280;5542;48.272;10.794;2023-08-01T09:35:39;94645.91;;;19.83;65.52
10978;BME280;5542;48.272;10.794;2023-08-01T09:38:08;94646.84;;;19.61;67.64
10978;BME280;5542;48.272;10.794;2023-08-01T09:40:36;94640.25;;;19.27;69.91
10978;BME280;5542;48.272;10.794;2023-08-01T09:43:02;94659.09;;;18.91;70.06
10978;BME280;5542;48.272;10.794;2023-08-01T09:45:29;94653.22;;;18.72;71.61
10978;BME280;5542;48.272;10.794;2023-08-01T09:47:56;94662.59;;;18.69;71.72
10978;BME280;5542;48.272;10.794;2023-08-01T09:50:23;94655.41;;;18.56;74.04
10978;BME280;5542;48.272;10.794;2023-08-01T09:52:50;94671.28;;;18.38;75.06
10978;BME280;5542;48.272;10.794;2023-08-01T09:55:25;94656.72;;;18.36;76.21
10978;BME280;5542;48.272;10.794;2023-08-01T09:57:55;94665.06;;;18.21;78.11
10978;BME280;5542;48.272;10.794;2023-08-01T10:00:25;94659.81;;;17.93;80.46
10978;BME280;5542;48.272;10.794;2023-08-01T10:02:52;94673.47;;;17.78;82.45
10978;BME280;5542;48.272;10.794;2023-08-01T10:05:20;94669.91;;;17.69;83.70
10978;BME280;5542;48.272;10.794;2023-08-01T10:07:48;94669.41;;;17.66;84.95
10978;BME280;5542;48.272;10.794;2023-08-01T10:10:17;94652.41;;;17.54;84.66
10978;BME280;5542;48.272;10.794;2023-08-01T10:12:46;94656.34;;;17.43;85.38
10978;BME280;5542;48.272;10.794;2023-08-01T10:15:14;94637.03;;;17.37;85.71
10978;BME280;5542;48.272;10.794;2023-08-01T10:17:41;94631.34;;;17.44;86.81
10978;BME280;5542;48.272;10.794;2023-08-01T10:20:09;94612.44;;;17.45;87.31
10978;BME280;5542;48.272;10.794;2023-08-01T10:22:36;94590.81;;;17.38;86.81
10978;BME280;5542;48.272;10.794;2023-08-01T10:25:04;94569.25;;;17.26;87.43
10978;BME280;5542;48.272;10.794;2023-08-01T10:27:31;94587.28;;;17.15;88.97
10978;BME280;5542;48.272;10.794;2023-08-01T10:30:01;94604.00;;;17.15;89.55
10978;BME280;5542;48.272;10.794;2023-08-01T10:32:31;94608.13;;;17.22;89.24
10978;BME280;5542;48.272;10.794;2023-08-01T10:34:58;94623.50;;;17.25;89.66
10978;BME280;5542;48.272;10.794;2023-08-01T10:37:25;94616.59;;;17.24;89.20
10978;BME280;5542;48.272;10.794;2023-08-01T10:39:59;94609.00;;;17.31;89.18
10978;BME280;5542;48.272;10.794;2023-08-01T10:42:26;94614.22;;;17.36;90.42
10978;BME280;5542;48.272;10.794;2023-08-01T10:45:05;94613.53;;;17.44;89.36
10978;BME280;5542;48.272;10.794;2023-08-01T10:47:32;94607.78;;;17.51;87.75
10978;BME280;5542;48.272;10.794;2023-08-01T10:49:59;94614.97;;;17.50;87.13
10978;BME280;5542;48.272;10.794;2023-08-01T10:52:26;94617.72;;;17.59;86.47
10978;BME280;5542;48.272;10.794;2023-08-01T10:54:57;94626.28;;;17.56;86.40
10978;BME280;5542;48.272;10.794;2023-08-01T10:57:26;94621.16;;;17.59;87.23
10978;BME280;5542;48.272;10.794;2023-08-01T10:59:54;94630.91;;;17.78;87.51
10978;BME280;5542;48.272;10.794;2023-08-01T11:02:24;94629.34;;;17.77;86.35
10978;BME280;5542;48.272;10.794;2023-08-01T11:04:55;94648.25;;;17.61;85.01
10978;BME280;5542;48.272;10.794;2023-08-01T11:07:22;94633.47;;;17.69;86.93
10978;BME280;5542;48.272;10.794;2023-08-01T11:09:48;94632.38;;;17.70;86.54
10978;BME280;5542;48.272;10.794;2023-08-01T11:12:15;94630.78;;;17.69;85.24
10978;BME280;5542;48.272;10.794;2023-08-01T11:14:42;94631.69;;;17.64;85.40
10978;BME280;5542;48.272;10.794;2023-08-01T11:17:08;94634.97;;;17.61;86.47
10978;BME280;5542;48.272;10.794;2023-08-01T11:19:36;94638.13;;;17.50;87.18
10978;BME280;5542;48.272;10.794;2023-08-01T11:22:09;94634.00;;;17.44;87.27
10978;BME280;5542;48.272;10.794;2023-08-01T11:24:36;94629.94;;;17.46;86.77
10978;BME280;5542;48.272;10.794;2023-08-01T11:27:03;94634.91;;;17.39;87.67
10978;BME280;5542;48.272;10.794;2023-08-01T11:29:30;94637.56;;;17.39;87.86
10978;BME280;5542;48.272;10.794;2023-08-01T11:31:58;94630.38;;;17.39;88.00
10978;BME280;5542;48.272;10.794;2023-08-01T11:34:25;94632.03;;;17.35;89.19
10978;BME280;5542;48.272;10.794;2023-08-01T11:36:53;94625.50;;;17.55;88.78
10978;BME280;5542;48.272;10.794;2023-08-01T11:39:20;94634.06;;;17.66;89.16
10978;BME280;5542;48.272;10.794;2023-08-01T11:41:47;94652.38;;;17.81;89.27
10978;BME280;5542;48.272;10.794;2023-08-01T11:44:14;94672.38;;;17.79;90.07
10978;BME280;5542;48.272;10.794;2023-08-01T11:46:41;94663.19;;;17.85;88.79
10978;BME280;5542;48.272;10.794;2023-08-01T11:49:08;94678.56;;;17.88;90.10
10978;BME280;5542;48.272;10.794;2023-08-01T11:51:41;94668.22;;;17.86;90.60
10978;BME280;5542;48.272;10.794;2023-08-01T11:54:10;94675.97;;;17.97;89.58
10978;BME280;5542;48.272;10.794;2023-08-01T11:56:38;94679.84;;;18.13;90.46
10978;BME280;5542;48.272;10.794;2023-08-01T11:59:09;94684.06;;;18.28;89.42
10978;BME280;5542;48.272;10.794;2023-08-01T12:01:39;94685.50;;;18.34;88.27
10978;BME280;5542;48.272;10.794;2023-08-01T12:04:06;94682.34;;;18.32;87.24
10978;BME280;5542;48.272;10.794;2023-08-01T12:06:33;94680.97;;;18.34;87.19
10978;BME280;5542;48.272;10.794;2023-08-01T12:09:06;94687.06;;;18.35;88.41
10978;BME280;5542;48.272;10.794;2023-08-01T12:11:35;94678.84;;;18.45;86.40
10978;BME280;5542;48.272;10.794;2023-08-01T12:14:03;94679.09;;;18.35;86.35
10978;BME280;5542;48.272;10.794;2023-08-01T12:16:29;94687.28;;;18.38;87.38
10978;BME280;5542;48.272;10.794;2023-08-01T12:18:56;94683.69;;;18.43;87.38
10978;BME280;5542;48.272;10.794;2023-08-01T12:21:23;94686.31;;;18.57;87.30
10978;BME280;5542;48.272;10.794;2023-08-01T12:23:50;94690.00;;;18.47;88.10
10978;BME280;5542;48.272;10.794;2023-08-01T12:26:16;94688.19;;;18.56;86.58
10978;BME280;5542;48.272;10.794;2023-08-01T12:28:44;94685.47;;;18.48;86.13
10978;BME280;5542;48.272;10.794;2023-08-01T12:31:15;94690.94;;;18.51;86.86
10978;BME280;5542;48.272;10.794;2023-08-01T12:33:42;94682.47;;;18.49;86.99
10978;BME280;5542;48.272;10.794;2023-08-01T12:36:09;94684.88;;;18.37;88.22
10978;BME280;5542;48.272;10.794;2023-08-01T12:38:35;94690.66;;;18.30;88.40
10978;BME280;5542;48.272;10.794;2023-08-01T12:41:02;94684.41;;;18.35;88.71
10978;BME280;5542;48.272;10.794;2023-08-01T12:43:28;94680.19;;;18.34;89.17
10978;BME280;5542;48.272;10.794;2023-08-01T12:45:56;94681.16;;;18.38;89.66
10978;BME280;5542;48.272;10.794;2023-08-01T12:48:23;94674.63;;;18.44;89.64
10978;BME280;5542;48.272;10.794;2023-08-01T12:50:50;94664.09;;;18.61;89.34
10978;BME280;5542;48.272;10.794;2023-08-01T12:53:16;94666.63;;;18.66;89.44
10978;BME280;5542;48.272;10.794;2023-08-01T12:55:43;94656.53;;;18.77;90.58
10978;BME280;5542;48.272;10.794;2023-08-01T12:58:10;94663.28;;;18.83;91.35
10978;BME280;5542;48.272;10.794;2023-08-01T13:00:37;94663.69;;;18.99;91.38
10978;BME280;5542;48.272;10.794;2023-08-01T13:03:05;94667.97;;;19.09;89.38